sensor_id;sensor_type;location;lat;lon;timestamp;temperature;humidity
15343;DHT22;7771;48.478;8.936;2022-11-23T00:00:58;5.50;99.90
15343;DHT22;7771;48.478;8.936;2022-11-23T00:03:24;5.40;99.90
15343;DHT22;7771;48.478;8.936;2022-11-23T00:05:51;5.40;99.90
15343;DHT22;7771;48.478;8.936;2022-11-23T00:08:17;5.30;99.90
15343;DHT22;7771;48.478;8.936;2022-11-23T00:10:44;5.30;99.90
15343;DHT22;7771;48.478;8.936;2022-11-23T00:13:11;5.30;99.90
15343;DHT22;7771;48.478;8.936;2022-11-23T00:15:39;5.30;99.90
15343;DHT22;7771;48.478;8.936;2022-11-23T00:18:04;5.30;99.90
15343;DHT22;7771;48.478;8.936;2022-11-23T00:20:31;5.30;99.90
15343;DHT22;7771;48.478;8.936;2022-11-23T00:22:57;5.20;99.90
15343;DHT22;7771;48.478;8.936;2022-11-23T00:25:26;5.20;99.90
15343;DHT22;7771;48.478;8.936;2022-11-23T00:27:54;5.10;99.90
15343;DHT22;7771;48.478;8.936;2022-11-23T00:30:21;5.10;99.90
15343;DHT22;7771;48.478;8.936;2022-11-23T00:32:49;5.00;99.90
15343;DHT22;7771;48.478;8.936;2022-11-23T00:35:16;5.00;99.90
15343;DHT22;7771;48.478;8.936;2022-11-23T00:37:43;4.90;99.90
15343;DHT22;7771;48.478;8.936;2022-11-23T00:40:11;4.90;99.90
15343;DHT22;7771;48.478;8.936;2022-11-23T00:42:38;4.80;99.90
15343;DHT22;7771;48.478;8.936;2022-11-23T00:45:04;4.80;99.90
15343;DHT22;7771;48.478;8.936;2022-11-23T00:47:32;4.70;99.90
15343;DHT22;7771;48.478;8.936;2022-11-23T00:49:59;4.70;99.90
15343;DHT22;7771;48.478;8.936;2022-11-23T00:52:25;4.70;99.90
15343;DHT22;7771;48.478;8.936;2022-11-23T00:54:52;4.70;99.90
15343;DHT22;7771;48.478;8.936;2022-11-23T00:57:20;4.80;99.90
15343;DHT22;7771;48.478;8.936;2022-11-23T00:59:47;4.80;99.90
15343;DHT22;7771;48.478;8.936;2022-11-23T01:02:14;4.80;99.90
15343;DHT22;7771;48.478;8.936;2022-11-23T01:04:40;4.80;99.90
15343;DHT22;7771;48.478;8.936;2022-11-23T01:07:08;4.70;99.90
15343;DHT22;7771;48.478;8.936;2022-11-23T01:09:35;4.70;99.90
15343;DHT22;7771;48.478;8.936;2022-11-23T01:12:02;4.70;99.90
15343;DHT22;7771;48.478;8.936;2022-11-23T01:14:30;4.80;99.90
15343;DHT22;7771;48.478;8.936;2022-11-23T01:16:57;4.80;99.90
15343;DHT22;7771;48.478;8.936;2022-11-23T01:19:25;4.80;99.90
15343;DHT22;7771;48.478;8.936;2022-11-23T01:21:52;4.70;99.90
15343;DHT22;7771;48.478;8.936;2022-11-23T01:24:20;4.70;99.90
15343;DHT22;7771;48.478;8.936;2022-11-23T01:26:51;4.70;99.90
15343;DHT22;7771;48.478;8.936;2022-11-23T01:29:17;4.60;99.90
15343;DHT22;7771;48.478;8.936;2022-11-23T01:31:44;4.60;99.90
15343;DHT22;7771;48.478;8.936;2022-11-23T01:34:11;4.60;99.90
15343;DHT22;7771;48.478;8.936;2022-11-23T01:36:37;4.50;99.90
15343;DHT22;7771;48.478;8.936;2022-11-23T01:39:04;4.50;99.90
15343;DHT22;7771;48.478;8.936;2022-11-23T01:41:33;4.50;99.90
15343;DHT22;7771;48.478;8.936;2022-11-23T01:43:58;4.50;99.90
15343;DHT22;7771;48.478;8.936;2022-11-23T01:46:24;4.50;99.90
15343;DHT22;7771;48.478;8.936;2022-11-23T01:48:55;4.40;99.90
15343;DHT22;7771;48.478;8.936;2022-11-23T01:51:25;4.40;99.90
15343;DHT22;7771;48.478;8.936;2022-11-23T01:53:50;4.40;99.90
15343;DHT22;7771;48.478;8.936;2022-11-23T01:56:16;4.40;99.90
15343;DHT22;7771;48.478;8.936;2022-11-23T01:58:44;4.30;99.90
15343;DHT22;7771;48.478;8.936;2022-11-23T02:01:09;4.30;99.90
15343;DHT22;7771;48.478;8.936;2022-11-23T02:03:36;4.20;99.90
15343;DHT22;7771;48.478;8.936;2022-11-23T02:06:03;4.20;99.90
15343;DHT22;7771;48.478;8.936;2022-11-23T02:08:30;4.10;99.90
15343;DHT22;7771;48.478;8.936;2022-11-23T02:10:57;4.10;99.90
15343;DHT22;7771;48.478;8.936;2022-11-23T02:13:24;4.10;99.90
15343;DHT22;7771;48.478;8.936;2022-11-23T02:15:50;4.00;99.90
15343;DHT22;7771;48.478;8.936;2022-11-23T02:18:23;4.00;99.90
15343;DHT22;7771;48.478;8.936;2022-11-23T02:20:45;4.00;99.90
15343;DHT22;7771;48.478;8.936;2022-11-23T02:23:35;4.00;99.90
15343;DHT22;7771;48.478;8.936;2022-11-23T02:26:03;3.90;99.90
15343;DHT22;7771;48.478;8.936;2022-11-23T02:28:31;3.90;99.90
15343;DHT22;7771;48.478;8.936;2022-11-23T02:30:55;3.80;99.90
15343;DHT22;7771;48.478;8.936;2022-11-23T02:33:22;3.80;99.90
15343;DHT22;7771;48.478;8.936;2022-11-23T02:35:51;3.80;99.90
15343;DHT22;7771;48.478;8.936;2022-11-23T02:38:17;3.80;99.90
15343;DHT22;7771;48.478;8.936;2022-11-23T02:40:43;3.80;99.90
15343;DHT22;7771;48.478;8.936;2022-11-23T02:43:11;3.80;99.90
15343;DHT22;7771;48.478;8.936;2022-11-23T02:48:10;3.80;99.90
15343;DHT22;7771;48.478;8.936;2022-11-23T02:50:37;3.80;99.90
15343;DHT22;7771;48.478;8.936;2022-11-23T02:53:03;3.80;99.90
15343;DHT22;7771;48.478;8.936;2022-11-23T02:55:30;3.70;99.90
15343;DHT22;7771;48.478;8.936;2022-11-23T02:57:57;3.80;99.90
15343;DHT22;7771;48.478;8.936;2022-11-23T03:00:23;3.70;99.90
15343;DHT22;7771;48.478;8.936;2022-11-23T03:02:51;3.70;99.90
15343;DHT22;7771;48.478;8.936;2022-11-23T03:05:17;3.70;99.90
15343;DHT22;7771;48.478;8.936;2022-11-23T03:07:44;3.70;99.90
15343;DHT22;7771;48.478;8.936;2022-11-23T03:10:11;3.70;99.90
15343;DHT22;7771;48.478;8.936;2022-11-23T03:12:37;3.60;99.90
15343;DHT22;7771;48.478;8.936;2022-11-23T03:15:05;3.60;99.90
15343;DHT22;7771;48.478;8.936;2022-11-23T03:17:32;3.50;99.90
15343;DHT22;7771;48.478;8.936;2022-11-23T03:19:59;3.50;99.90
15343;DHT22;7771;48.478;8.936;2022-11-23T03:22:25;3.40;99.90
15343;DHT22;7771;48.478;8.936;2022-11-23T03:24:52;3.40;99.90
15343;DHT22;7771;48.478;8.936;2022-11-23T03:27:18;3.40;99.90
15343;DHT22;7771;48.478;8.936;2022-11-23T03:29:45;3.40;99.90
15343;DHT22;7771;48.478;8.936;2022-11-23T03:32:11;3.40;99.90
15343;DHT22;7771;48.478;8.936;2022-11-23T03:34:38;3.40;99.90
15343;DHT22;7771;48.478;8.936;2022-11-23T03:37:05;3.40;99.90
15343;DHT22;7771;48.478;8.936;2022-11-23T03:39:32;3.50;99.90
15343;DHT22;7771;48.478;8.936;2022-11-23T03:41:58;3.50;99.90
15343;DHT22;7771;48.478;8.936;2022-11-23T03:44:25;3.50;99.90
15343;DHT22;7771;48.478;8.936;2022-11-23T03:46:52;3.60;99.90
15343;DHT22;7771;48.478;8.936;2022-11-23T03:49:18;3.60;99.90
15343;DHT22;7771;48.478;8.936;2022-11-23T03:51:45;3.60;99.90
15343;DHT22;7771;48.478;8.936;2022-11-23T03:54:12;3.60;99.90
15343;DHT22;7771;48.478;8.936;2022-11-23T03:56:38;3.60;99.90
15343;DHT22;7771;48.478;8.936;2022-11-23T03:59:05;3.70;99.90
15343;DHT22;7771;48.478;8.936;2022-11-23T04:01:31;3.80;99.90
15343;DHT22;7771;48.478;8.936;2022-11-23T04:03:58;3.80;99.90
15343;DHT22;7771;48.478;8.936;2022-11-23T04:06:25;3.80;99.90
15343;DHT22;7771;48.478;8.936;2022-11-23T04:08:52;3.80;99.90
15343;DHT22;7771;48.478;8.936;2022-11-23T04:11:18;3.80;99.90
15343;DHT22;7771;48.478;8.936;2022-11-23T04:13:46;3.80;99.90
15343;DHT22;7771;48.478;8.936;2022-11-23T04:16:13;3.80;99.90
15343;DHT22;7771;48.478;8.936;2022-11-23T04:18:39;3.90;99.90
15343;DHT22;7771;48.478;8.936;2022-11-23T04:21:06;3.90;99.90
15343;DHT22;7771;48.478;8.936;2022-11-23T04:23:33;3.90;99.90
15343;DHT22;7771;48.478;8.936;2022-11-23T04:26:00;4.00;99.90
15343;DHT22;7771;48.478;8.936;2022-11-23T04:28:27;3.90;99.90
15343;DHT22;7771;48.478;8.936;2022-11-23T04:30:53;4.00;99.90
15343;DHT22;7771;48.478;8.936;2022-11-23T04:33:20;4.00;99.90
15343;DHT22;7771;48.478;8.936;2022-11-23T04:35:47;4.00;99.90
15343;DHT22;7771;48.478;8.936;2022-11-23T04:38:14;4.00;99.90
15343;DHT22;7771;48.478;8.936;2022-11-23T04:40:41;4.00;99.90
15343;DHT22;7771;48.478;8.936;2022-11-23T04:43:09;4.10;99.90
15343;DHT22;7771;48.478;8.936;2022-11-23T04:45:37;4.00;99.90
15343;DHT22;7771;48.478;8.936;2022-11-23T04:48:03;4.00;99.90
15343;DHT22;7771;48.478;8.936;2022-11-23T04:50:30;4.00;99.90
15343;DHT22;7771;48.478;8.936;2022-11-23T04:52:56;4.00;99.90
15343;DHT22;7771;48.478;8.936;2022-11-23T04:55:23;4.00;99.90
15343;DHT22;7771;48.478;8.936;2022-11-23T04:57:50;4.00;99.90
15343;DHT22;7771;48.478;8.936;2022-11-23T05:00:16;4.00;99.90
15343;DHT22;7771;48.478;8.936;2022-11-23T05:02:44;4.00;99.90
15343;DHT22;7771;48.478;8.936;2022-11-23T05:05:11;4.00;99.90
15343;DHT22;7771;48.478;8.936;2022-11-23T05:07:38;4.10;99.90
15343;DHT22;7771;48.478;8.936;2022-11-23T05:10:06;4.10;99.90
15343;DHT22;7771;48.478;8.936;2022-11-23T05:12:33;4.10;99.90
15343;DHT22;7771;48.478;8.936;2022-11-23T05:15:01;4.10;99.90
15343;DHT22;7771;48.478;8.936;2022-11-23T05:17:27;4.10;99.90
15343;DHT22;7771;48.478;8.936;2022-11-23T05:19:54;4.10;99.90
15343;DHT22;7771;48.478;8.936;2022-11-23T05:22:22;4.10;99.90
15343;DHT22;7771;48.478;8.936;2022-11-23T05:24:48;4.10;99.90
15343;DHT22;7771;48.478;8.936;2022-11-23T05:27:15;4.10;99.90
15343;DHT22;7771;48.478;8.936;2022-11-23T05:29:41;4.10;99.90
15343;DHT22;7771;48.478;8.936;2022-11-23T05:32:14;4.10;99.90
15343;DHT22;7771;48.478;8.936;2022-11-23T05:37:10;4.10;99.90
15343;DHT22;7771;48.478;8.936;2022-11-23T05:39:36;4.10;99.90
15343;DHT22;7771;48.478;8.936;2022-11-23T05:42:04;4.10;99.90
15343;DHT22;7771;48.478;8.936;2022-11-23T05:44:30;4.00;99.90
15343;DHT22;7771;48.478;8.936;2022-11-23T05:46:58;4.00;99.90
15343;DHT22;7771;48.478;8.936;2022-11-23T05:49:24;4.00;99.90
15343;DHT22;7771;48.478;8.936;2022-11-23T05:51:52;4.00;99.90
15343;DHT22;7771;48.478;8.936;2022-11-23T05:54:18;4.00;99.90
15343;DHT22;7771;48.478;8.936;2022-11-23T05:56:46;4.00;99.90
15343;DHT22;7771;48.478;8.936;2022-11-23T05:59:12;4.00;99.90
15343;DHT22;7771;48.478;8.936;2022-11-23T06:01:40;3.90;99.90
15343;DHT22;7771;48.478;8.936;2022-11-23T06:04:07;3.90;99.90
15343;DHT22;7771;48.478;8.936;2022-11-23T06:06:34;3.90;99.90
15343;DHT22;7771;48.478;8.936;2022-11-23T06:09:01;3.90;99.90
15343;DHT22;7771;48.478;8.936;2022-11-23T06:11:28;3.90;99.90
15343;DHT22;7771;48.478;8.936;2022-11-23T06:13:55;4.00;99.90
15343;DHT22;7771;48.478;8.936;2022-11-23T06:16:21;3.90;99.90
15343;DHT22;7771;48.478;8.936;2022-11-23T06:18:48;3.90;99.90
15343;DHT22;7771;48.478;8.936;2022-11-23T06:21:16;3.90;99.90
15343;DHT22;7771;48.478;8.936;2022-11-23T06:23:45;3.90;99.90
15343;DHT22;7771;48.478;8.936;2022-11-23T06:26:10;3.90;99.90
15343;DHT22;7771;48.478;8.936;2022-11-23T06:28:37;3.80;99.90
15343;DHT22;7771;48.478;8.936;2022-11-23T06:31:04;3.80;99.90
15343;DHT22;7771;48.478;8.936;2022-11-23T06:33:32;3.80;99.90
15343;DHT22;7771;48.478;8.936;2022-11-23T06:36:00;3.80;99.90
15343;DHT22;7771;48.478;8.936;2022-11-23T06:38:27;3.80;99.90
15343;DHT22;7771;48.478;8.936;2022-11-23T06:40:57;3.80;99.90
15343;DHT22;7771;48.478;8.936;2022-11-23T06:43:24;3.80;99.90
15343;DHT22;7771;48.478;8.936;2022-11-23T06:45:51;3.70;99.90
15343;DHT22;7771;48.478;8.936;2022-11-23T06:48:18;3.80;99.90
15343;DHT22;7771;48.478;8.936;2022-11-23T06:50:45;3.80;99.90
15343;DHT22;7771;48.478;8.936;2022-11-23T06:53:12;3.80;99.90
15343;DHT22;7771;48.478;8.936;2022-11-23T06:55:39;3.80;99.90
15343;DHT22;7771;48.478;8.936;2022-11-23T06:58:05;3.80;99.90
15343;DHT22;7771;48.478;8.936;2022-11-23T07:00:32;3.70;99.90
15343;DHT22;7771;48.478;8.936;2022-11-23T07:02:59;3.60;99.90
15343;DHT22;7771;48.478;8.936;2022-11-23T07:05:25;3.60;99.90
15343;DHT22;7771;48.478;8.936;2022-11-23T07:07:52;3.60;99.90
15343;DHT22;7771;48.478;8.936;2022-11-23T07:10:19;3.60;99.90
15343;DHT22;7771;48.478;8.936;2022-11-23T07:12:45;3.50;99.90
15343;DHT22;7771;48.478;8.936;2022-11-23T07:15:13;3.50;99.90
15343;DHT22;7771;48.478;8.936;2022-11-23T07:17:40;3.50;99.90
15343;DHT22;7771;48.478;8.936;2022-11-23T07:20:07;3.50;99.90
15343;DHT22;7771;48.478;8.936;2022-11-23T07:22:35;3.50;99.90
15343;DHT22;7771;48.478;8.936;2022-11-23T07:25:02;3.50;99.90
15343;DHT22;7771;48.478;8.936;2022-11-23T07:27:29;3.60;99.90
15343;DHT22;7771;48.478;8.936;2022-11-23T07:29:56;3.60;99.90
15343;DHT22;7771;48.478;8.936;2022-11-23T07:32:22;3.60;99.90
15343;DHT22;7771;48.478;8.936;2022-11-23T07:37:17;3.60;99.90
15343;DHT22;7771;48.478;8.936;2022-11-23T07:39:43;3.70;99.90
15343;DHT22;7771;48.478;8.936;2022-11-23T07:42:11;3.70;99.90
15343;DHT22;7771;48.478;8.936;2022-11-23T07:44:37;3.70;99.90
15343;DHT22;7771;48.478;8.936;2022-11-23T07:47:06;3.80;99.90
15343;DHT22;7771;48.478;8.936;2022-11-23T07:49:32;3.90;99.90
15343;DHT22;7771;48.478;8.936;2022-11-23T07:51:59;3.90;99.90
15343;DHT22;7771;48.478;8.936;2022-11-23T07:54:26;4.00;99.90
15343;DHT22;7771;48.478;8.936;2022-11-23T07:56:53;4.20;99.90
15343;DHT22;7771;48.478;8.936;2022-11-23T07:59:20;4.30;99.90
15343;DHT22;7771;48.478;8.936;2022-11-23T08:01:47;4.40;99.90
15343;DHT22;7771;48.478;8.936;2022-11-23T08:04:15;4.60;99.90
15343;DHT22;7771;48.478;8.936;2022-11-23T08:06:42;4.80;99.90
15343;DHT22;7771;48.478;8.936;2022-11-23T08:09:09;4.90;99.90
15343;DHT22;7771;48.478;8.936;2022-11-23T08:11:36;5.00;99.90
15343;DHT22;7771;48.478;8.936;2022-11-23T08:14:03;5.10;99.90
15343;DHT22;7771;48.478;8.936;2022-11-23T08:16:30;5.20;99.90
15343;DHT22;7771;48.478;8.936;2022-11-23T08:18:56;5.30;99.90
15343;DHT22;7771;48.478;8.936;2022-11-23T08:21:23;5.50;99.90
15343;DHT22;7771;48.478;8.936;2022-11-23T08:23:51;5.60;99.90
15343;DHT22;7771;48.478;8.936;2022-11-23T08:26:18;5.80;99.90
15343;DHT22;7771;48.478;8.936;2022-11-23T08:28:46;5.90;99.90
15343;DHT22;7771;48.478;8.936;2022-11-23T08:31:13;6.00;99.90
15343;DHT22;7771;48.478;8.936;2022-11-23T08:33:40;6.20;99.90
15343;DHT22;7771;48.478;8.936;2022-11-23T08:36:08;6.30;99.90
15343;DHT22;7771;48.478;8.936;2022-11-23T08:38:34;6.30;99.90
15343;DHT22;7771;48.478;8.936;2022-11-23T08:41:01;6.40;99.90
15343;DHT22;7771;48.478;8.936;2022-11-23T08:43:28;6.50;99.90
15343;DHT22;7771;48.478;8.936;2022-11-23T08:45:57;6.60;99.90
15343;DHT22;7771;48.478;8.936;2022-11-23T08:48:23;6.70;99.90
15343;DHT22;7771;48.478;8.936;2022-11-23T08:50:51;6.80;99.90
15343;DHT22;7771;48.478;8.936;2022-11-23T08:53:19;6.90;99.90
15343;DHT22;7771;48.478;8.936;2022-11-23T08:55:45;7.00;99.90
15343;DHT22;7771;48.478;8.936;2022-11-23T09:00:41;7.00;99.90
15343;DHT22;7771;48.478;8.936;2022-11-23T09:03:09;7.10;99.90
15343;DHT22;7771;48.478;8.936;2022-11-23T09:05:36;7.20;99.90
15343;DHT22;7771;48.478;8.936;2022-11-23T09:08:04;7.20;99.90
15343;DHT22;7771;48.478;8.936;2022-11-23T09:10:30;7.30;99.90
15343;DHT22;7771;48.478;8.936;2022-11-23T09:12:57;7.40;99.90
15343;DHT22;7771;48.478;8.936;2022-11-23T09:15:24;7.50;99.90
15343;DHT22;7771;48.478;8.936;2022-11-23T09:17:51;7.60;99.90
15343;DHT22;7771;48.478;8.936;2022-11-23T09:20:18;7.70;99.90
15343;DHT22;7771;48.478;8.936;2022-11-23T09:22:49;7.80;99.90
15343;DHT22;7771;48.478;8.936;2022-11-23T09:25:15;7.80;99.90
15343;DHT22;7771;48.478;8.936;2022-11-23T09:27:43;7.90;99.90
15343;DHT22;7771;48.478;8.936;2022-11-23T09:30:11;7.90;99.90
15343;DHT22;7771;48.478;8.936;2022-11-23T09:32:37;7.90;99.90
15343;DHT22;7771;48.478;8.936;2022-11-23T09:35:04;8.00;99.90
15343;DHT22;7771;48.478;8.936;2022-11-23T09:37:32;8.00;99.90
15343;DHT22;7771;48.478;8.936;2022-11-23T09:39:59;8.20;99.90
15343;DHT22;7771;48.478;8.936;2022-11-23T09:42:40;8.20;99.90
15343;DHT22;7771;48.478;8.936;2022-11-23T09:45:29;8.20;99.90
15343;DHT22;7771;48.478;8.936;2022-11-23T09:48:09;8.30;99.90
15343;DHT22;7771;48.478;8.936;2022-11-23T09:50:42;8.30;99.90
15343;DHT22;7771;48.478;8.936;2022-11-23T09:53:02;8.30;99.90
15343;DHT22;7771;48.478;8.936;2022-11-23T09:55:49;8.30;99.90
15343;DHT22;7771;48.478;8.936;2022-11-23T09:58:16;8.30;99.90
15343;DHT22;7771;48.478;8.936;2022-11-23T10:00:54;8.30;99.90
15343;DHT22;7771;48.478;8.936;2022-11-23T10:03:20;8.40;99.90
15343;DHT22;7771;48.478;8.936;2022-11-23T10:05:59;8.50;99.90
15343;DHT22;7771;48.478;8.936;2022-11-23T10:08:33;8.60;99.90
15343;DHT22;7771;48.478;8.936;2022-11-23T10:11:06;8.60;99.90
15343;DHT22;7771;48.478;8.936;2022-11-23T10:13:34;8.70;99.90
15343;DHT22;7771;48.478;8.936;2022-11-23T10:16:08;8.70;99.90
15343;DHT22;7771;48.478;8.936;2022-11-23T10:18:40;8.90;99.90
15343;DHT22;7771;48.478;8.936;2022-11-23T10:21:12;8.90;99.90
15343;DHT22;7771;48.478;8.936;2022-11-23T10:23:55;9.00;99.90
15343;DHT22;7771;48.478;8.936;2022-11-23T10:26:26;9.10;99.90
15343;DHT22;7771;48.478;8.936;2022-11-23T10:28:51;9.20;99.90
15343;DHT22;7771;48.478;8.936;2022-11-23T10:31:19;9.30;99.90
15343;DHT22;7771;48.478;8.936;2022-11-23T10:33:52;9.30;99.90
15343;DHT22;7771;48.478;8.936;2022-11-23T10:36:17;9.40;99.90
15343;DHT22;7771;48.478;8.936;2022-11-23T10:38:46;9.50;99.90
15343;DHT22;7771;48.478;8.936;2022-11-23T10:41:12;9.60;99.90
15343;DHT22;7771;48.478;8.936;2022-11-23T10:43:50;9.60;99.90
15343;DHT22;7771;48.478;8.936;2022-11-23T10:46:30;9.70;99.90
15343;DHT22;7771;48.478;8.936;2022-11-23T10:51:30;9.80;99.90
15343;DHT22;7771;48.478;8.936;2022-11-23T10:53:57;9.90;99.90
15343;DHT22;7771;48.478;8.936;2022-11-23T10:56:22;9.90;99.90
15343;DHT22;7771;48.478;8.936;2022-11-23T10:58:50;10.00;99.90
15343;DHT22;7771;48.478;8.936;2022-11-23T11:01:19;10.00;99.90
15343;DHT22;7771;48.478;8.936;2022-11-23T11:03:44;10.10;99.90
15343;DHT22;7771;48.478;8.936;2022-11-23T11:06:11;10.10;99.90
15343;DHT22;7771;48.478;8.936;2022-11-23T11:08:49;10.10;99.90
15343;DHT22;7771;48.478;8.936;2022-11-23T11:11:21;10.20;99.90
15343;DHT22;7771;48.478;8.936;2022-11-23T11:13:47;10.20;99.90
15343;DHT22;7771;48.478;8.936;2022-11-23T11:16:19;10.30;99.90
15343;DHT22;7771;48.478;8.936;2022-11-23T11:18:45;10.40;99.90
15343;DHT22;7771;48.478;8.936;2022-11-23T11:21:18;10.40;99.90
15343;DHT22;7771;48.478;8.936;2022-11-23T11:23:46;10.50;99.90
15343;DHT22;7771;48.478;8.936;2022-11-23T11:26:17;10.50;99.90
15343;DHT22;7771;48.478;8.936;2022-11-23T11:28:41;10.60;99.90
15343;DHT22;7771;48.478;8.936;2022-11-23T11:31:18;10.70;99.90
15343;DHT22;7771;48.478;8.936;2022-11-23T11:33:45;10.70;99.90
15343;DHT22;7771;48.478;8.936;2022-11-23T11:36:10;10.70;99.90
15343;DHT22;7771;48.478;8.936;2022-11-23T11:38:37;10.80;99.90
15343;DHT22;7771;48.478;8.936;2022-11-23T11:41:08;10.80;99.90
15343;DHT22;7771;48.478;8.936;2022-11-23T11:43:40;10.80;99.90
15343;DHT22;7771;48.478;8.936;2022-11-23T11:46:11;10.80;99.90
15343;DHT22;7771;48.478;8.936;2022-11-23T11:48:39;10.90;99.90
15343;DHT22;7771;48.478;8.936;2022-11-23T11:51:07;10.90;99.90
15343;DHT22;7771;48.478;8.936;2022-11-23T11:53:38;10.80;99.90
15343;DHT22;7771;48.478;8.936;2022-11-23T11:56:06;10.80;99.90
15343;DHT22;7771;48.478;8.936;2022-11-23T11:58:31;10.90;99.90
15343;DHT22;7771;48.478;8.936;2022-11-23T12:03:43;10.90;99.90
15343;DHT22;7771;48.478;8.936;2022-11-23T12:06:12;10.90;99.90
15343;DHT22;7771;48.478;8.936;2022-11-23T12:08:45;10.90;99.90
15343;DHT22;7771;48.478;8.936;2022-11-23T12:11:09;10.90;99.90
15343;DHT22;7771;48.478;8.936;2022-11-23T12:13:37;10.80;99.90
15343;DHT22;7771;48.478;8.936;2022-11-23T12:18:55;10.70;99.90
15343;DHT22;7771;48.478;8.936;2022-11-23T12:21:30;10.70;99.90
15343;DHT22;7771;48.478;8.936;2022-11-23T12:24:00;10.70;99.90
15343;DHT22;7771;48.478;8.936;2022-11-23T12:26:31;10.70;99.90
15343;DHT22;7771;48.478;8.936;2022-11-23T12:29:29;10.80;99.90
15343;DHT22;7771;48.478;8.936;2022-11-23T12:34:16;10.80;99.90
15343;DHT22;7771;48.478;8.936;2022-11-23T12:36:44;10.70;99.90
15343;DHT22;7771;48.478;8.936;2022-11-23T12:39:30;10.70;99.90
15343;DHT22;7771;48.478;8.936;2022-11-23T12:41:59;10.70;99.90
15343;DHT22;7771;48.478;8.936;2022-11-23T12:44:35;10.70;99.90
15343;DHT22;7771;48.478;8.936;2022-11-23T12:47:08;10.70;99.90
15343;DHT22;7771;48.478;8.936;2022-11-23T12:50:12;10.80;99.90
15343;DHT22;7771;48.478;8.936;2022-11-23T12:52:25;10.80;99.90
15343;DHT22;7771;48.478;8.936;2022-11-23T12:55:27;10.80;99.90
15343;DHT22;7771;48.478;8.936;2022-11-23T12:57:57;10.90;99.90
15343;DHT22;7771;48.478;8.936;2022-11-23T13:00:21;10.80;99.90
15343;DHT22;7771;48.478;8.936;2022-11-23T13:03:17;10.80;99.90
15343;DHT22;7771;48.478;8.936;2022-11-23T13:05:49;10.80;99.90
15343;DHT22;7771;48.478;8.936;2022-11-23T13:08:32;10.90;99.90
15343;DHT22;7771;48.478;8.936;2022-11-23T13:11:08;10.80;99.90
15343;DHT22;7771;48.478;8.936;2022-11-23T13:13:50;10.90;99.90
15343;DHT22;7771;48.478;8.936;2022-11-23T13:19:19;10.80;99.90
15343;DHT22;7771;48.478;8.936;2022-11-23T13:21:42;10.80;99.90
15343;DHT22;7771;48.478;8.936;2022-11-23T13:26:47;10.90;99.90
15343;DHT22;7771;48.478;8.936;2022-11-23T13:32:04;10.80;99.90
15343;DHT22;7771;48.478;8.936;2022-11-23T13:34:42;10.80;99.90
15343;DHT22;7771;48.478;8.936;2022-11-23T13:37:08;10.80;99.90
15343;DHT22;7771;48.478;8.936;2022-11-23T13:39:59;10.80;99.90
15343;DHT22;7771;48.478;8.936;2022-11-23T13:42:25;10.90;99.90
15343;DHT22;7771;48.478;8.936;2022-11-23T13:47:29;11.00;99.90
15343;DHT22;7771;48.478;8.936;2022-11-23T13:50:07;11.00;99.90
15343;DHT22;7771;48.478;8.936;2022-11-23T13:55:19;11.00;99.90
15343;DHT22;7771;48.478;8.936;2022-11-23T13:57:45;11.00;99.90
15343;DHT22;7771;48.478;8.936;2022-11-23T14:02:49;11.10;99.90
15343;DHT22;7771;48.478;8.936;2022-11-23T14:05:29;11.10;99.90
15343;DHT22;7771;48.478;8.936;2022-11-23T14:07:54;11.10;99.90
15343;DHT22;7771;48.478;8.936;2022-11-23T14:10:22;11.10;99.90
15343;DHT22;7771;48.478;8.936;2022-11-23T14:12:52;11.10;99.90
15343;DHT22;7771;48.478;8.936;2022-11-23T14:15:18;11.10;99.90
15343;DHT22;7771;48.478;8.936;2022-11-23T14:18:05;11.00;99.90
15343;DHT22;7771;48.478;8.936;2022-11-23T14:21:06;11.00;99.90
15343;DHT22;7771;48.478;8.936;2022-11-23T14:32:15;10.90;99.90
15343;DHT22;7771;48.478;8.936;2022-11-23T14:40:03;10.80;99.90
15343;DHT22;7771;48.478;8.936;2022-11-23T14:42:28;10.80;99.90
15343;DHT22;7771;48.478;8.936;2022-11-23T14:44:59;10.70;99.90
15343;DHT22;7771;48.478;8.936;2022-11-23T14:47:24;10.70;99.90
15343;DHT22;7771;48.478;8.936;2022-11-23T14:49:50;10.60;99.90
15343;DHT22;7771;48.478;8.936;2022-11-23T14:52:19;10.60;99.90
15343;DHT22;7771;48.478;8.936;2022-11-23T14:54:49;10.60;99.90
15343;DHT22;7771;48.478;8.936;2022-11-23T14:57:15;10.50;99.90
15343;DHT22;7771;48.478;8.936;2022-11-23T14:59:42;10.50;99.90
15343;DHT22;7771;48.478;8.936;2022-11-23T15:02:14;10.50;99.90
15343;DHT22;7771;48.478;8.936;2022-11-23T15:04:51;10.40;99.90
15343;DHT22;7771;48.478;8.936;2022-11-23T15:07:12;10.40;99.90
15343;DHT22;7771;48.478;8.936;2022-11-23T15:17:57;10.10;99.90
15343;DHT22;7771;48.478;8.936;2022-11-23T15:20:27;10.10;99.90
15343;DHT22;7771;48.478;8.936;2022-11-23T15:22:52;10.00;99.90
15343;DHT22;7771;48.478;8.936;2022-11-23T15:25:19;10.00;99.90
15343;DHT22;7771;48.478;8.936;2022-11-23T15:27:46;10.00;99.90
15343;DHT22;7771;48.478;8.936;2022-11-23T15:30:15;10.00;99.90
15343;DHT22;7771;48.478;8.936;2022-11-23T15:32:41;9.90;99.90
15343;DHT22;7771;48.478;8.936;2022-11-23T15:35:10;9.90;99.90
15343;DHT22;7771;48.478;8.936;2022-11-23T15:37:38;11.30;99.90
15343;DHT22;7771;48.478;8.936;2022-11-23T15:40:03;9.90;99.90
15343;DHT22;7771;48.478;8.936;2022-11-23T15:42:30;9.80;99.90
15343;DHT22;7771;48.478;8.936;2022-11-23T15:44:56;9.80;99.90
15343;DHT22;7771;48.478;8.936;2022-11-23T15:47:25;9.80;99.90
15343;DHT22;7771;48.478;8.936;2022-11-23T15:49:53;9.80;99.90
15343;DHT22;7771;48.478;8.936;2022-11-23T15:52:18;9.80;99.90
15343;DHT22;7771;48.478;8.936;2022-11-23T15:54:46;9.70;99.90
15343;DHT22;7771;48.478;8.936;2022-11-23T15:57:16;9.70;99.90
15343;DHT22;7771;48.478;8.936;2022-11-23T15:59:48;9.70;99.90
15343;DHT22;7771;48.478;8.936;2022-11-23T16:02:17;9.60;99.90
15343;DHT22;7771;48.478;8.936;2022-11-23T16:04:42;9.70;99.90
15343;DHT22;7771;48.478;8.936;2022-11-23T16:07:21;9.60;99.90
15343;DHT22;7771;48.478;8.936;2022-11-23T16:09:48;9.60;99.90
15343;DHT22;7771;48.478;8.936;2022-11-23T16:12:20;9.60;99.90
15343;DHT22;7771;48.478;8.936;2022-11-23T16:14:46;9.50;99.90
15343;DHT22;7771;48.478;8.936;2022-11-23T16:17:21;9.50;99.90
15343;DHT22;7771;48.478;8.936;2022-11-23T16:19:47;9.50;99.90
15343;DHT22;7771;48.478;8.936;2022-11-23T16:22:19;9.50;99.90
15343;DHT22;7771;48.478;8.936;2022-11-23T16:24:46;9.50;99.90
15343;DHT22;7771;48.478;8.936;2022-11-23T16:27:11;9.50;99.90
15343;DHT22;7771;48.478;8.936;2022-11-23T16:29:37;9.50;99.90
15343;DHT22;7771;48.478;8.936;2022-11-23T16:32:16;9.50;99.90
15343;DHT22;7771;48.478;8.936;2022-11-23T16:34:31;9.60;99.90
15343;DHT22;7771;48.478;8.936;2022-11-23T16:37:00;9.50;99.90
15343;DHT22;7771;48.478;8.936;2022-11-23T16:39:25;9.60;99.90
15343;DHT22;7771;48.478;8.936;2022-11-23T16:41:52;9.60;99.90
15343;DHT22;7771;48.478;8.936;2022-11-23T16:44:19;9.50;99.90
15343;DHT22;7771;48.478;8.936;2022-11-23T16:46:46;9.60;99.90
15343;DHT22;7771;48.478;8.936;2022-11-23T16:49:22;9.60;99.90
15343;DHT22;7771;48.478;8.936;2022-11-23T16:51:50;9.50;99.90
15343;DHT22;7771;48.478;8.936;2022-11-23T16:54:16;9.50;99.90
15343;DHT22;7771;48.478;8.936;2022-11-23T16:56:43;9.60;99.90
15343;DHT22;7771;48.478;8.936;2022-11-23T16:59:18;9.60;99.90
15343;DHT22;7771;48.478;8.936;2022-11-23T17:01:46;9.60;99.90
15343;DHT22;7771;48.478;8.936;2022-11-23T17:04:13;9.60;99.90